sensor_id;sensor_type;location;lat;lon;timestamp;temperature;humidity
22319;DHT22;11327;52.334;9.506;2022-12-19T00:02:27;1.60;99.90
22319;DHT22;11327;52.334;9.506;2022-12-19T00:05:48;1.60;99.90
22319;DHT22;11327;52.334;9.506;2022-12-19T00:09:10;1.60;99.90
22319;DHT22;11327;52.334;9.506;2022-12-19T00:12:32;1.50;99.90
22319;DHT22;11327;52.334;9.506;2022-12-19T00:15:53;1.50;99.90
22319;DHT22;11327;52.334;9.506;2022-12-19T00:19:14;1.40;99.90
22319;DHT22;11327;52.334;9.506;2022-12-19T00:22:35;1.40;99.90
22319;DHT22;11327;52.334;9.506;2022-12-19T00:29:32;1.30;99.90
22319;DHT22;11327;52.334;9.506;2022-12-19T00:32:53;1.30;99.90
22319;DHT22;11327;52.334;9.506;2022-12-19T00:36:19;1.30;99.90
22319;DHT22;11327;52.334;9.506;2022-12-19T00:39:41;1.30;99.90
22319;DHT22;11327;52.334;9.506;2022-12-19T00:43:02;1.40;99.90
22319;DHT22;11327;52.334;9.506;2022-12-19T00:46:23;1.40;99.90
22319;DHT22;11327;52.334;9.506;2022-12-19T00:49:45;1.40;99.90
22319;DHT22;11327;52.334;9.506;2022-12-19T00:53:06;1.40;99.90
22319;DHT22;11327;52.334;9.506;2022-12-19T00:56:32;1.40;99.90
22319;DHT22;11327;52.334;9.506;2022-12-19T00:59:50;1.40;99.90
22319;DHT22;11327;52.334;9.506;2022-12-19T01:03:11;1.40;99.90
22319;DHT22;11327;52.334;9.506;2022-12-19T01:06:32;1.30;99.90
22319;DHT22;11327;52.334;9.506;2022-12-19T01:09:53;1.40;99.90
22319;DHT22;11327;52.334;9.506;2022-12-19T01:13:17;1.40;99.90
22319;DHT22;11327;52.334;9.506;2022-12-19T01:16:38;1.40;99.90
22319;DHT22;11327;52.334;9.506;2022-12-19T01:19:59;1.30;99.90
22319;DHT22;11327;52.334;9.506;2022-12-19T01:23:20;1.40;99.90
22319;DHT22;11327;52.334;9.506;2022-12-19T01:26:41;1.30;99.90
22319;DHT22;11327;52.334;9.506;2022-12-19T01:30:04;1.30;99.90
22319;DHT22;11327;52.334;9.506;2022-12-19T01:33:25;1.30;99.90
22319;DHT22;11327;52.334;9.506;2022-12-19T01:36:46;1.30;99.90
22319;DHT22;11327;52.334;9.506;2022-12-19T01:40:10;1.40;99.90
22319;DHT22;11327;52.334;9.506;2022-12-19T01:46:56;1.30;99.90
22319;DHT22;11327;52.334;9.506;2022-12-19T01:50:27;1.30;99.90
22319;DHT22;11327;52.334;9.506;2022-12-19T01:53:57;1.20;99.90
22319;DHT22;11327;52.334;9.506;2022-12-19T01:57:16;1.20;99.90
22319;DHT22;11327;52.334;9.506;2022-12-19T02:00:41;1.10;99.90
22319;DHT22;11327;52.334;9.506;2022-12-19T02:04:03;1.10;99.90
22319;DHT22;11327;52.334;9.506;2022-12-19T02:07:25;1.10;99.90
22319;DHT22;11327;52.334;9.506;2022-12-19T02:10:47;1.10;99.90
22319;DHT22;11327;52.334;9.506;2022-12-19T02:14:08;1.20;99.90
22319;DHT22;11327;52.334;9.506;2022-12-19T02:35:35;1.50;99.90
22319;DHT22;11327;52.334;9.506;2022-12-19T02:38:58;1.50;99.90
22319;DHT22;11327;52.334;9.506;2022-12-19T02:42:27;1.50;99.90
22319;DHT22;11327;52.334;9.506;2022-12-19T02:45:50;1.50;99.90
22319;DHT22;11327;52.334;9.506;2022-12-19T02:49:12;1.50;99.90
22319;DHT22;11327;52.334;9.506;2022-12-19T02:56:14;1.50;99.90
22319;DHT22;11327;52.334;9.506;2022-12-19T02:59:42;1.60;99.90
22319;DHT22;11327;52.334;9.506;2022-12-19T03:03:18;1.70;99.90
22319;DHT22;11327;52.334;9.506;2022-12-19T03:06:41;1.70;99.90
22319;DHT22;11327;52.334;9.506;2022-12-19T03:10:10;1.70;99.90
22319;DHT22;11327;52.334;9.506;2022-12-19T03:13:33;1.60;99.90
22319;DHT22;11327;52.334;9.506;2022-12-19T03:16:54;1.60;99.90
22319;DHT22;11327;52.334;9.506;2022-12-19T03:20:22;1.50;99.90
22319;DHT22;11327;52.334;9.506;2022-12-19T03:23:43;1.60;99.90
22319;DHT22;11327;52.334;9.506;2022-12-19T03:27:11;1.60;99.90
22319;DHT22;11327;52.334;9.506;2022-12-19T03:30:33;1.70;99.90
22319;DHT22;11327;52.334;9.506;2022-12-19T03:33:58;1.60;99.90
22319;DHT22;11327;52.334;9.506;2022-12-19T03:37:22;1.60;99.90
22319;DHT22;11327;52.334;9.506;2022-12-19T03:40:45;1.70;99.90
22319;DHT22;11327;52.334;9.506;2022-12-19T03:44:07;1.70;99.90
22319;DHT22;11327;52.334;9.506;2022-12-19T03:54:27;1.70;99.90
22319;DHT22;11327;52.334;9.506;2022-12-19T03:57:52;2.00;99.90
22319;DHT22;11327;52.334;9.506;2022-12-19T04:01:14;2.10;99.90
22319;DHT22;11327;52.334;9.506;2022-12-19T04:04:45;2.10;99.90
22319;DHT22;11327;52.334;9.506;2022-12-19T04:08:07;2.20;99.90
22319;DHT22;11327;52.334;9.506;2022-12-19T04:11:33;2.20;99.90
22319;DHT22;11327;52.334;9.506;2022-12-19T04:14:53;2.20;99.90
22319;DHT22;11327;52.334;9.506;2022-12-19T04:18:14;2.30;99.90
22319;DHT22;11327;52.334;9.506;2022-12-19T04:21:41;2.30;99.90
22319;DHT22;11327;52.334;9.506;2022-12-19T04:25:05;2.30;99.90
22319;DHT22;11327;52.334;9.506;2022-12-19T04:28:45;2.30;99.90
22319;DHT22;11327;52.334;9.506;2022-12-19T04:32:04;2.30;99.90
22319;DHT22;11327;52.334;9.506;2022-12-19T04:35:26;2.20;99.90
22319;DHT22;11327;52.334;9.506;2022-12-19T04:38:47;2.10;99.90
22319;DHT22;11327;52.334;9.506;2022-12-19T04:42:08;2.00;99.90
22319;DHT22;11327;52.334;9.506;2022-12-19T04:45:29;2.00;99.90
22319;DHT22;11327;52.334;9.506;2022-12-19T04:48:50;2.10;99.90
22319;DHT22;11327;52.334;9.506;2022-12-19T04:52:11;2.10;99.90
22319;DHT22;11327;52.334;9.506;2022-12-19T04:55:32;2.20;99.90
22319;DHT22;11327;52.334;9.506;2022-12-19T04:58:59;2.30;99.90
22319;DHT22;11327;52.334;9.506;2022-12-19T05:02:20;2.30;99.90
22319;DHT22;11327;52.334;9.506;2022-12-19T05:05:41;2.40;99.90
22319;DHT22;11327;52.334;9.506;2022-12-19T05:09:03;2.50;99.90
22319;DHT22;11327;52.334;9.506;2022-12-19T05:12:24;2.50;99.90
22319;DHT22;11327;52.334;9.506;2022-12-19T05:15:54;2.50;99.90
22319;DHT22;11327;52.334;9.506;2022-12-19T05:19:10;2.60;99.90
22319;DHT22;11327;52.334;9.506;2022-12-19T05:22:31;2.70;99.90
22319;DHT22;11327;52.334;9.506;2022-12-19T05:25:52;2.50;99.90
22319;DHT22;11327;52.334;9.506;2022-12-19T05:29:15;2.40;99.90
22319;DHT22;11327;52.334;9.506;2022-12-19T05:32:36;2.30;99.90
22319;DHT22;11327;52.334;9.506;2022-12-19T05:35:58;2.30;99.90
22319;DHT22;11327;52.334;9.506;2022-12-19T05:39:18;2.30;99.90
22319;DHT22;11327;52.334;9.506;2022-12-19T05:42:40;2.50;99.90
22319;DHT22;11327;52.334;9.506;2022-12-19T05:46:03;2.50;99.90
22319;DHT22;11327;52.334;9.506;2022-12-19T05:49:24;2.50;99.90
22319;DHT22;11327;52.334;9.506;2022-12-19T05:52:45;2.50;99.90
22319;DHT22;11327;52.334;9.506;2022-12-19T05:56:08;2.50;99.90
22319;DHT22;11327;52.334;9.506;2022-12-19T05:59:30;2.50;99.90
22319;DHT22;11327;52.334;9.506;2022-12-19T06:02:51;2.40;99.90
22319;DHT22;11327;52.334;9.506;2022-12-19T06:06:14;2.40;99.90
22319;DHT22;11327;52.334;9.506;2022-12-19T06:09:35;2.50;99.90
22319;DHT22;11327;52.334;9.506;2022-12-19T06:12:56;2.50;99.90
22319;DHT22;11327;52.334;9.506;2022-12-19T06:16:19;2.60;99.90
22319;DHT22;11327;52.334;9.506;2022-12-19T06:19:40;2.70;99.90
22319;DHT22;11327;52.334;9.506;2022-12-19T06:23:01;2.70;99.90
22319;DHT22;11327;52.334;9.506;2022-12-19T06:26:22;2.70;99.90
22319;DHT22;11327;52.334;9.506;2022-12-19T06:29:43;2.60;99.90
22319;DHT22;11327;52.334;9.506;2022-12-19T06:33:04;2.50;99.90
22319;DHT22;11327;52.334;9.506;2022-12-19T06:36:27;2.60;99.90
22319;DHT22;11327;52.334;9.506;2022-12-19T06:39:49;2.50;99.90
22319;DHT22;11327;52.334;9.506;2022-12-19T06:43:10;2.50;99.90
22319;DHT22;11327;52.334;9.506;2022-12-19T06:46:31;2.50;99.90
22319;DHT22;11327;52.334;9.506;2022-12-19T06:49:53;2.50;99.90
22319;DHT22;11327;52.334;9.506;2022-12-19T06:53:14;2.50;99.90
22319;DHT22;11327;52.334;9.506;2022-12-19T06:56:36;2.70;99.90
22319;DHT22;11327;52.334;9.506;2022-12-19T06:59:58;2.60;99.90
22319;DHT22;11327;52.334;9.506;2022-12-19T07:03:25;2.80;99.90
22319;DHT22;11327;52.334;9.506;2022-12-19T07:06:46;2.90;99.90
22319;DHT22;11327;52.334;9.506;2022-12-19T07:10:08;2.90;99.90
22319;DHT22;11327;52.334;9.506;2022-12-19T07:13:29;2.90;99.90
22319;DHT22;11327;52.334;9.506;2022-12-19T07:16:51;3.00;99.90
22319;DHT22;11327;52.334;9.506;2022-12-19T07:20:13;2.90;99.90
22319;DHT22;11327;52.334;9.506;2022-12-19T07:23:35;2.90;99.90
22319;DHT22;11327;52.334;9.506;2022-12-19T07:26:57;2.90;99.90
22319;DHT22;11327;52.334;9.506;2022-12-19T07:30:18;2.90;99.90
22319;DHT22;11327;52.334;9.506;2022-12-19T07:33:39;2.90;99.90
22319;DHT22;11327;52.334;9.506;2022-12-19T07:37:03;2.80;99.90
22319;DHT22;11327;52.334;9.506;2022-12-19T07:40:24;2.80;99.90
22319;DHT22;11327;52.334;9.506;2022-12-19T07:43:45;2.80;99.90
22319;DHT22;11327;52.334;9.506;2022-12-19T07:47:08;2.70;99.90
22319;DHT22;11327;52.334;9.506;2022-12-19T07:50:29;2.80;99.90
22319;DHT22;11327;52.334;9.506;2022-12-19T07:53:50;2.70;99.90
22319;DHT22;11327;52.334;9.506;2022-12-19T07:57:11;2.70;99.90
22319;DHT22;11327;52.334;9.506;2022-12-19T08:00:32;2.70;99.90
22319;DHT22;11327;52.334;9.506;2022-12-19T08:03:53;2.60;99.90
22319;DHT22;11327;52.334;9.506;2022-12-19T08:07:13;2.60;99.90
22319;DHT22;11327;52.334;9.506;2022-12-19T08:10:34;2.60;99.90
22319;DHT22;11327;52.334;9.506;2022-12-19T08:13:56;2.60;99.90
22319;DHT22;11327;52.334;9.506;2022-12-19T08:17:17;2.60;99.90
22319;DHT22;11327;52.334;9.506;2022-12-19T08:20:42;2.60;99.90
22319;DHT22;11327;52.334;9.506;2022-12-19T08:24:01;2.60;99.90
22319;DHT22;11327;52.334;9.506;2022-12-19T08:27:22;2.60;99.90
22319;DHT22;11327;52.334;9.506;2022-12-19T08:30:44;2.50;99.90
22319;DHT22;11327;52.334;9.506;2022-12-19T08:34:04;2.40;99.90
22319;DHT22;11327;52.334;9.506;2022-12-19T08:37:25;2.40;99.90
22319;DHT22;11327;52.334;9.506;2022-12-19T08:40:52;2.30;99.90
22319;DHT22;11327;52.334;9.506;2022-12-19T08:44:14;2.50;99.90
22319;DHT22;11327;52.334;9.506;2022-12-19T08:47:35;2.40;99.90
22319;DHT22;11327;52.334;9.506;2022-12-19T08:50:59;2.40;99.90
22319;DHT22;11327;52.334;9.506;2022-12-19T08:54:20;2.40;99.90
22319;DHT22;11327;52.334;9.506;2022-12-19T08:57:41;2.50;99.90
22319;DHT22;11327;52.334;9.506;2022-12-19T09:01:04;2.50;99.90
22319;DHT22;11327;52.334;9.506;2022-12-19T09:04:28;2.50;99.90
22319;DHT22;11327;52.334;9.506;2022-12-19T09:07:49;2.50;99.90
22319;DHT22;11327;52.334;9.506;2022-12-19T09:11:16;2.50;99.90
22319;DHT22;11327;52.334;9.506;2022-12-19T09:14:35;2.50;99.90
22319;DHT22;11327;52.334;9.506;2022-12-19T09:17:56;2.50;99.90
22319;DHT22;11327;52.334;9.506;2022-12-19T09:21:18;2.50;99.90
22319;DHT22;11327;52.334;9.506;2022-12-19T09:24:39;2.50;99.90
22319;DHT22;11327;52.334;9.506;2022-12-19T09:28:00;2.70;99.90
22319;DHT22;11327;52.334;9.506;2022-12-19T09:31:23;2.80;99.90
22319;DHT22;11327;52.334;9.506;2022-12-19T09:34:44;2.80;99.90
22319;DHT22;11327;52.334;9.506;2022-12-19T09:38:05;2.80;99.90
22319;DHT22;11327;52.334;9.506;2022-12-19T09:48:44;3.20;99.90
22319;DHT22;11327;52.334;9.506;2022-12-19T09:55:45;3.40;99.90
22319;DHT22;11327;52.334;9.506;2022-12-19T09:59:35;3.60;99.90
22319;DHT22;11327;52.334;9.506;2022-12-19T10:02:43;3.60;99.90
22319;DHT22;11327;52.334;9.506;2022-12-19T10:06:20;3.60;99.90
22319;DHT22;11327;52.334;9.506;2022-12-19T10:09:41;3.90;99.90
22319;DHT22;11327;52.334;9.506;2022-12-19T10:13:36;4.00;99.90
22319;DHT22;11327;52.334;9.506;2022-12-19T10:17:21;4.00;99.90
22319;DHT22;11327;52.334;9.506;2022-12-19T10:20:41;4.20;99.90
22319;DHT22;11327;52.334;9.506;2022-12-19T10:31:28;4.30;99.90
22319;DHT22;11327;52.334;9.506;2022-12-19T10:34:49;4.30;99.90
22319;DHT22;11327;52.334;9.506;2022-12-19T10:41:56;4.20;99.90
22319;DHT22;11327;52.334;9.506;2022-12-19T10:45:20;4.20;99.90
22319;DHT22;11327;52.334;9.506;2022-12-19T10:48:41;4.30;99.90
22319;DHT22;11327;52.334;9.506;2022-12-19T10:52:05;4.20;99.90
22319;DHT22;11327;52.334;9.506;2022-12-19T10:55:48;4.10;99.90
22319;DHT22;11327;52.334;9.506;2022-12-19T10:59:17;4.30;99.90
22319;DHT22;11327;52.334;9.506;2022-12-19T11:02:48;4.40;99.90
22319;DHT22;11327;52.334;9.506;2022-12-19T11:09:37;4.40;99.90
22319;DHT22;11327;52.334;9.506;2022-12-19T11:12:58;4.40;99.90
22319;DHT22;11327;52.334;9.506;2022-12-19T11:16:33;4.50;99.90
22319;DHT22;11327;52.334;9.506;2022-12-19T11:19:46;4.40;99.90
22319;DHT22;11327;52.334;9.506;2022-12-19T11:23:12;4.40;99.90
22319;DHT22;11327;52.334;9.506;2022-12-19T11:26:43;4.30;99.90
22319;DHT22;11327;52.334;9.506;2022-12-19T11:33:45;4.30;99.90
22319;DHT22;11327;52.334;9.506;2022-12-19T11:37:21;4.30;99.90
22319;DHT22;11327;52.334;9.506;2022-12-19T11:40:54;4.40;99.90
22319;DHT22;11327;52.334;9.506;2022-12-19T11:44:28;4.40;99.90
22319;DHT22;11327;52.334;9.506;2022-12-19T11:48:04;4.40;99.90
22319;DHT22;11327;52.334;9.506;2022-12-19T11:51:29;4.50;99.90
22319;DHT22;11327;52.334;9.506;2022-12-19T11:54:58;4.50;99.90
22319;DHT22;11327;52.334;9.506;2022-12-19T11:58:21;4.40;99.90
22319;DHT22;11327;52.334;9.506;2022-12-19T12:05:44;4.30;99.90
22319;DHT22;11327;52.334;9.506;2022-12-19T12:16:37;4.20;99.90
22319;DHT22;11327;52.334;9.506;2022-12-19T12:20:02;4.30;99.90
22319;DHT22;11327;52.334;9.506;2022-12-19T12:23:29;4.30;99.90
22319;DHT22;11327;52.334;9.506;2022-12-19T12:30:46;4.40;99.90
22319;DHT22;11327;52.334;9.506;2022-12-19T12:42:01;4.40;99.90
22319;DHT22;11327;52.334;9.506;2022-12-19T12:45:37;4.30;99.90
22319;DHT22;11327;52.334;9.506;2022-12-19T12:49:04;4.40;99.90
22319;DHT22;11327;52.334;9.506;2022-12-19T12:55:52;4.40;99.90
22319;DHT22;11327;52.334;9.506;2022-12-19T12:59:22;4.40;99.90
22319;DHT22;11327;52.334;9.506;2022-12-19T13:02:52;4.40;99.90
22319;DHT22;11327;52.334;9.506;2022-12-19T13:06:33;4.50;99.90
22319;DHT22;11327;52.334;9.506;2022-12-19T13:13:50;4.50;99.90
22319;DHT22;11327;52.334;9.506;2022-12-19T13:17:23;4.50;99.90
22319;DHT22;11327;52.334;9.506;2022-12-19T13:20:46;4.70;99.90
22319;DHT22;11327;52.334;9.506;2022-12-19T13:24:19;4.70;99.90
22319;DHT22;11327;52.334;9.506;2022-12-19T13:27:39;4.70;99.90
22319;DHT22;11327;52.334;9.506;2022-12-19T13:34:35;4.80;99.90
22319;DHT22;11327;52.334;9.506;2022-12-19T13:38:20;4.70;99.90
22319;DHT22;11327;52.334;9.506;2022-12-19T13:41:42;4.70;99.90
22319;DHT22;11327;52.334;9.506;2022-12-19T13:45:30;4.70;99.90
22319;DHT22;11327;52.334;9.506;2022-12-19T13:48:51;4.70;99.90
22319;DHT22;11327;52.334;9.506;2022-12-19T13:52:13;4.80;99.90
22319;DHT22;11327;52.334;9.506;2022-12-19T13:55:38;4.70;99.90
22319;DHT22;11327;52.334;9.506;2022-12-19T13:59:01;4.70;99.90
22319;DHT22;11327;52.334;9.506;2022-12-19T14:02:38;4.70;99.90
22319;DHT22;11327;52.334;9.506;2022-12-19T14:06:00;4.60;99.90
22319;DHT22;11327;52.334;9.506;2022-12-19T14:12:49;4.50;99.90
22319;DHT22;11327;52.334;9.506;2022-12-19T14:16:29;4.50;99.90
22319;DHT22;11327;52.334;9.506;2022-12-19T14:19:52;4.50;99.90
22319;DHT22;11327;52.334;9.506;2022-12-19T14:23:13;4.50;99.90
22319;DHT22;11327;52.334;9.506;2022-12-19T14:26:35;4.50;99.90
22319;DHT22;11327;52.334;9.506;2022-12-19T14:29:57;4.60;99.90
22319;DHT22;11327;52.334;9.506;2022-12-19T14:33:21;4.70;99.90
22319;DHT22;11327;52.334;9.506;2022-12-19T14:36:51;4.80;99.90
22319;DHT22;11327;52.334;9.506;2022-12-19T14:40:23;4.80;99.90
22319;DHT22;11327;52.334;9.506;2022-12-19T14:43:52;4.70;99.90
22319;DHT22;11327;52.334;9.506;2022-12-19T14:47:11;4.60;99.90
22319;DHT22;11327;52.334;9.506;2022-12-19T14:50:35;4.60;99.90
22319;DHT22;11327;52.334;9.506;2022-12-19T14:54:19;4.60;99.90
22319;DHT22;11327;52.334;9.506;2022-12-19T14:57:41;4.70;99.90
22319;DHT22;11327;52.334;9.506;2022-12-19T15:01:17;4.60;99.90
22319;DHT22;11327;52.334;9.506;2022-12-19T15:07:56;4.60;99.90
22319;DHT22;11327;52.334;9.506;2022-12-19T15:11:27;4.60;99.90
22319;DHT22;11327;52.334;9.506;2022-12-19T15:15:24;4.80;99.90
22319;DHT22;11327;52.334;9.506;2022-12-19T15:18:46;4.80;99.90
22319;DHT22;11327;52.334;9.506;2022-12-19T15:22:07;4.90;99.90
22319;DHT22;11327;52.334;9.506;2022-12-19T15:25:28;4.90;99.90
22319;DHT22;11327;52.334;9.506;2022-12-19T15:28:51;4.90;99.90
22319;DHT22;11327;52.334;9.506;2022-12-19T15:32:14;4.80;99.90
22319;DHT22;11327;52.334;9.506;2022-12-19T15:35:35;4.80;99.90
22319;DHT22;11327;52.334;9.506;2022-12-19T15:38:56;4.80;99.90
22319;DHT22;11327;52.334;9.506;2022-12-19T15:42:22;4.70;99.90
22319;DHT22;11327;52.334;9.506;2022-12-19T15:45:45;4.60;99.90
22319;DHT22;11327;52.334;9.506;2022-12-19T15:49:16;4.60;99.90
22319;DHT22;11327;52.334;9.506;2022-12-19T15:52:37;4.70;99.90
22319;DHT22;11327;52.334;9.506;2022-12-19T15:55:58;4.70;99.90
22319;DHT22;11327;52.334;9.506;2022-12-19T15:59:33;4.70;99.90
22319;DHT22;11327;52.334;9.506;2022-12-19T16:02:55;4.60;99.90
22319;DHT22;11327;52.334;9.506;2022-12-19T16:06:16;4.60;99.90
22319;DHT22;11327;52.334;9.506;2022-12-19T16:09:37;4.60;99.90
22319;DHT22;11327;52.334;9.506;2022-12-19T16:12:58;4.70;99.90
22319;DHT22;11327;52.334;9.506;2022-12-19T16:16:20;4.70;99.90
22319;DHT22;11327;52.334;9.506;2022-12-19T16:19:41;4.60;99.90
22319;DHT22;11327;52.334;9.506;2022-12-19T16:23:02;4.60;99.90
22319;DHT22;11327;52.334;9.506;2022-12-19T16:26:32;4.70;99.90
22319;DHT22;11327;52.334;9.506;2022-12-19T16:29:54;4.60;99.90
22319;DHT22;11327;52.334;9.506;2022-12-19T16:36:40;4.60;99.90
22319;DHT22;11327;52.334;9.506;2022-12-19T16:40:02;4.60;99.90
22319;DHT22;11327;52.334;9.506;2022-12-19T16:43:39;4.60;99.90
22319;DHT22;11327;52.334;9.506;2022-12-19T16:47:00;4.50;99.90
22319;DHT22;11327;52.334;9.506;2022-12-19T16:50:24;4.50;99.90
22319;DHT22;11327;52.334;9.506;2022-12-19T16:53:46;4.50;99.90
22319;DHT22;11327;52.334;9.506;2022-12-19T16:57:17;4.60;99.90
22319;DHT22;11327;52.334;9.506;2022-12-19T17:00:36;4.70;99.90
22319;DHT22;11327;52.334;9.506;2022-12-19T17:03:57;4.70;99.90
22319;DHT22;11327;52.334;9.506;2022-12-19T17:07:18;4.80;99.90
22319;DHT22;11327;52.334;9.506;2022-12-19T17:10:41;4.90;99.90
22319;DHT22;11327;52.334;9.506;2022-12-19T17:14:06;4.90;99.90
22319;DHT22;11327;52.334;9.506;2022-12-19T17:17:28;4.90;99.90
22319;DHT22;11327;52.334;9.506;2022-12-19T17:20:49;4.80;99.90
22319;DHT22;11327;52.334;9.506;2022-12-19T17:24:12;4.80;99.90
22319;DHT22;11327;52.334;9.506;2022-12-19T17:27:34;4.80;99.90
22319;DHT22;11327;52.334;9.506;2022-12-19T17:30:57;4.80;99.90
22319;DHT22;11327;52.334;9.506;2022-12-19T17:34:22;4.80;99.90
22319;DHT22;11327;52.334;9.506;2022-12-19T17:37:48;4.80;99.90
22319;DHT22;11327;52.334;9.506;2022-12-19T17:41:14;4.70;99.90
22319;DHT22;11327;52.334;9.506;2022-12-19T17:44:36;4.90;99.90
22319;DHT22;11327;52.334;9.506;2022-12-19T17:48:01;5.10;99.90
22319;DHT22;11327;52.334;9.506;2022-12-19T17:51:24;5.20;99.90
22319;DHT22;11327;52.334;9.506;2022-12-19T17:54:45;5.10;99.90
22319;DHT22;11327;52.334;9.506;2022-12-19T17:58:12;4.90;99.90
22319;DHT22;11327;52.334;9.506;2022-12-19T18:01:31;4.80;99.90
22319;DHT22;11327;52.334;9.506;2022-12-19T18:04:53;4.70;99.90
22319;DHT22;11327;52.334;9.506;2022-12-19T18:11:45;4.70;99.90
22319;DHT22;11327;52.334;9.506;2022-12-19T18:15:06;4.70;99.90
22319;DHT22;11327;52.334;9.506;2022-12-19T18:18:31;4.70;99.90
22319;DHT22;11327;52.334;9.506;2022-12-19T18:21:52;4.70;99.90
22319;DHT22;11327;52.334;9.506;2022-12-19T18:25:15;4.70;99.90
22319;DHT22;11327;52.334;9.506;2022-12-19T18:28:38;4.70;99.90
22319;DHT22;11327;52.334;9.506;2022-12-19T18:31:59;4.70;99.90
22319;DHT22;11327;52.334;9.506;2022-12-19T18:35:30;4.70;99.90
22319;DHT22;11327;52.334;9.506;2022-12-19T18:38:44;4.60;99.90
22319;DHT22;11327;52.334;9.506;2022-12-19T18:42:18;4.60;99.90
22319;DHT22;11327;52.334;9.506;2022-12-19T18:45:41;4.60;99.90
22319;DHT22;11327;52.334;9.506;2022-12-19T18:49:03;4.60;99.90
22319;DHT22;11327;52.334;9.506;2022-12-19T18:52:24;4.50;99.90
22319;DHT22;11327;52.334;9.506;2022-12-19T18:55:45;4.40;99.90
22319;DHT22;11327;52.334;9.506;2022-12-19T18:59:06;4.50;99.90
22319;DHT22;11327;52.334;9.506;2022-12-19T19:02:27;4.50;99.90
22319;DHT22;11327;52.334;9.506;2022-12-19T19:05:48;4.50;99.90
22319;DHT22;11327;52.334;9.506;2022-12-19T19:09:16;4.60;99.90
22319;DHT22;11327;52.334;9.506;2022-12-19T19:12:34;4.50;99.90
22319;DHT22;11327;52.334;9.506;2022-12-19T19:15:57;4.60;99.90
22319;DHT22;11327;52.334;9.506;2022-12-19T19:19:19;4.70;99.90
22319;DHT22;11327;52.334;9.506;2022-12-19T19:22:40;4.70;99.90
22319;DHT22;11327;52.334;9.506;2022-12-19T19:26:01;5.00;99.90
22319;DHT22;11327;52.334;9.506;2022-12-19T19:29:22;5.10;99.90
22319;DHT22;11327;52.334;9.506;2022-12-19T19:32:47;5.20;99.90
22319;DHT22;11327;52.334;9.506;2022-12-19T19:36:11;5.30;99.90
22319;DHT22;11327;52.334;9.506;2022-12-19T19:39:33;5.30;99.90
22319;DHT22;11327;52.334;9.506;2022-12-19T19:42:54;5.30;99.90
22319;DHT22;11327;52.334;9.506;2022-12-19T19:46:15;5.20;99.90
22319;DHT22;11327;52.334;9.506;2022-12-19T19:49:36;5.30;99.90
22319;DHT22;11327;52.334;9.506;2022-12-19T19:52:57;5.30;99.90
22319;DHT22;11327;52.334;9.506;2022-12-19T19:56:18;5.30;99.90
22319;DHT22;11327;52.334;9.506;2022-12-19T19:59:39;5.20;99.90
22319;DHT22;11327;52.334;9.506;2022-12-19T20:03:00;5.20;99.90
22319;DHT22;11327;52.334;9.506;2022-12-19T20:06:21;5.30;99.90
22319;DHT22;11327;52.334;9.506;2022-12-19T20:09:42;5.50;99.90
22319;DHT22;11327;52.334;9.506;2022-12-19T20:13:03;5.70;99.90
22319;DHT22;11327;52.334;9.506;2022-12-19T20:16:24;5.80;99.90
22319;DHT22;11327;52.334;9.506;2022-12-19T20:19:45;5.90;99.90
22319;DHT22;11327;52.334;9.506;2022-12-19T20:23:06;5.90;99.90
22319;DHT22;11327;52.334;9.506;2022-12-19T20:26:27;6.00;99.90
22319;DHT22;11327;52.334;9.506;2022-12-19T20:29:48;6.00;99.90
22319;DHT22;11327;52.334;9.506;2022-12-19T20:33:10;6.10;99.90
22319;DHT22;11327;52.334;9.506;2022-12-19T20:36:32;6.10;99.90
22319;DHT22;11327;52.334;9.506;2022-12-19T20:39:53;5.80;99.90
22319;DHT22;11327;52.334;9.506;2022-12-19T20:43:14;5.70;99.90
22319;DHT22;11327;52.334;9.506;2022-12-19T20:46:35;5.50;99.90
22319;DHT22;11327;52.334;9.506;2022-12-19T20:49:56;5.50;99.90
22319;DHT22;11327;52.334;9.506;2022-12-19T20:53:17;5.50;99.90
22319;DHT22;11327;52.334;9.506;2022-12-19T20:56:37;5.40;99.90
22319;DHT22;11327;52.334;9.506;2022-12-19T20:59:58;5.50;99.90
22319;DHT22;11327;52.334;9.506;2022-12-19T21:03:21;5.60;99.90
22319;DHT22;11327;52.334;9.506;2022-12-19T21:06:42;5.70;99.90
22319;DHT22;11327;52.334;9.506;2022-12-19T21:10:04;5.60;99.90
22319;DHT22;11327;52.334;9.506;2022-12-19T21:13:25;5.70;99.90
22319;DHT22;11327;52.334;9.506;2022-12-19T21:16:46;5.70;99.90
22319;DHT22;11327;52.334;9.506;2022-12-19T21:20:08;5.90;99.90
22319;DHT22;11327;52.334;9.506;2022-12-19T21:23:29;6.00;99.90
22319;DHT22;11327;52.334;9.506;2022-12-19T21:26:50;6.00;99.90
22319;DHT22;11327;52.334;9.506;2022-12-19T21:30:12;5.90;99.90
22319;DHT22;11327;52.334;9.506;2022-12-19T21:33:33;5.80;99.90
22319;DHT22;11327;52.334;9.506;2022-12-19T21:36:54;5.70;99.90
22319;DHT22;11327;52.334;9.506;2022-12-19T21:40:16;5.60;99.90
22319;DHT22;11327;52.334;9.506;2022-12-19T21:43:37;5.60;99.90
22319;DHT22;11327;52.334;9.506;2022-12-19T21:46:58;5.50;99.90
22319;DHT22;11327;52.334;9.506;2022-12-19T21:50:19;5.50;99.90
22319;DHT22;11327;52.334;9.506;2022-12-19T21:53:40;5.50;99.90
22319;DHT22;11327;52.334;9.506;2022-12-19T21:57:01;5.50;99.90
22319;DHT22;11327;52.334;9.506;2022-12-19T22:00:22;5.40;99.90
22319;DHT22;11327;52.334;9.506;2022-12-19T22:03:43;5.30;99.90
22319;DHT22;11327;52.334;9.506;2022-12-19T22:07:04;5.30;99.90
22319;DHT22;11327;52.334;9.506;2022-12-19T22:10:25;5.20;99.90
22319;DHT22;11327;52.334;9.506;2022-12-19T22:13:47;5.10;99.90
22319;DHT22;11327;52.334;9.506;2022-12-19T22:17:08;5.40;99.90
22319;DHT22;11327;52.334;9.506;2022-12-19T22:20:29;5.60;99.90
22319;DHT22;11327;52.334;9.506;2022-12-19T22:23:50;6.00;99.90
22319;DHT22;11327;52.334;9.506;2022-12-19T22:27:11;6.30;99.90
22319;DHT22;11327;52.334;9.506;2022-12-19T22:30:34;6.50;99.90
22319;DHT22;11327;52.334;9.506;2022-12-19T22:33:57;6.40;99.90
22319;DHT22;11327;52.334;9.506;2022-12-19T22:37:18;6.40;99.90
22319;DHT22;11327;52.334;9.506;2022-12-19T22:40:39;6.40;99.90
22319;DHT22;11327;52.334;9.506;2022-12-19T22:44:00;6.50;99.90
22319;DHT22;11327;52.334;9.506;2022-12-19T22:47:22;6.60;99.90
22319;DHT22;11327;52.334;9.506;2022-12-19T22:50:44;6.60;99.90
22319;DHT22;11327;52.334;9.506;2022-12-19T22:54:06;6.70;99.90
22319;DHT22;11327;52.334;9.506;2022-12-19T22:57:27;6.80;99.90
22319;DHT22;11327;52.334;9.506;2022-12-19T23:00:48;6.90;99.90
22319;DHT22;11327;52.334;9.506;2022-12-19T23:04:12;6.90;99.90
22319;DHT22;11327;52.334;9.506;2022-12-19T23:07:34;7.00;99.90
22319;DHT22;11327;52.334;9.506;2022-12-19T23:10:55;7.10;99.90
22319;DHT22;11327;52.334;9.506;2022-12-19T23:14:18;7.10;99.90
22319;DHT22;11327;52.334;9.506;2022-12-19T23:17:39;7.00;99.90
22319;DHT22;11327;52.334;9.506;2022-12-19T23:21:02;7.00;99.90
22319;DHT22;11327;52.334;9.506;2022-12-19T23:24:23;7.00;99.90
22319;DHT22;11327;52.334;9.506;2022-12-19T23:27:44;7.00;99.90
22319;DHT22;11327;52.334;9.506;2022-12-19T23:31:09;7.00;99.90
22319;DHT22;11327;52.334;9.506;2022-12-19T23:34:31;7.00;99.90
22319;DHT22;11327;52.334;9.506;2022-12-19T23:37:52;7.00;99.90